sensor_id;sensor_type;location;lat;lon;timestamp;P1;durP1;ratioP1;P2;durP2;ratioP2
51985;SDS011;38002;53.296;6.600;2022-09-13T00:03:31;22.08;;;14.10;;
51985;SDS011;38002;53.296;6.600;2022-09-13T00:08:32;17.13;;;12.90;;
51985;SDS011;38002;53.296;6.600;2022-09-13T00:13:33;20.60;;;15.37;;
51985;SDS011;38002;53.296;6.600;2022-09-13T00:18:33;20.40;;;14.87;;
51985;SDS011;38002;53.296;6.600;2022-09-13T00:23:34;22.63;;;15.43;;
51985;SDS011;38002;53.296;6.600;2022-09-13T00:28:35;20.38;;;13.75;;
51985;SDS011;38002;53.296;6.600;2022-09-13T00:33:36;23.60;;;16.67;;
51985;SDS011;38002;53.296;6.600;2022-09-13T00:38:38;22.75;;;15.35;;
51985;SDS011;38002;53.296;6.600;2022-09-13T00:43:40;17.98;;;12.82;;
51985;SDS011;38002;53.296;6.600;2022-09-13T00:48:44;16.92;;;11.75;;
51985;SDS011;38002;53.296;6.600;2022-09-13T00:53:48;20.25;;;14.10;;
51985;SDS011;38002;53.296;6.600;2022-09-13T00:58:53;20.90;;;14.55;;
51985;SDS011;38002;53.296;6.600;2022-09-13T01:03:59;17.13;;;12.75;;
51985;SDS011;38002;53.296;6.600;2022-09-13T01:09:02;18.88;;;13.15;;
51985;SDS011;38002;53.296;6.600;2022-09-13T01:14:04;21.52;;;13.50;;
51985;SDS011;38002;53.296;6.600;2022-09-13T01:19:07;21.70;;;14.15;;
51985;SDS011;38002;53.296;6.600;2022-09-13T01:24:12;21.17;;;15.20;;
51985;SDS011;38002;53.296;6.600;2022-09-13T01:34:54;27.40;;;17.60;;
51985;SDS011;38002;53.296;6.600;2022-09-13T01:50:42;26.20;;;18.25;;
51985;SDS011;38002;53.296;6.600;2022-09-13T02:01:16;23.73;;;15.88;;
51985;SDS011;38002;53.296;6.600;2022-09-13T02:12:03;23.77;;;15.18;;
51985;SDS011;38002;53.296;6.600;2022-09-13T02:17:12;22.83;;;15.05;;
51985;SDS011;38002;53.296;6.600;2022-09-13T02:22:20;18.23;;;15.25;;
51985;SDS011;38002;53.296;6.600;2022-09-13T02:27:27;19.40;;;14.32;;
51985;SDS011;38002;53.296;6.600;2022-09-13T02:33:17;17.65;;;14.20;;
51985;SDS011;38002;53.296;6.600;2022-09-13T02:38:20;17.88;;;12.48;;
51985;SDS011;38002;53.296;6.600;2022-09-13T02:43:26;21.65;;;12.88;;
51985;SDS011;38002;53.296;6.600;2022-09-13T02:54:01;9.48;;;7.68;;
51985;SDS011;38002;53.296;6.600;2022-09-13T02:59:20;5.95;;;4.75;;
51985;SDS011;38002;53.296;6.600;2022-09-13T03:04:23;4.30;;;3.42;;
51985;SDS011;38002;53.296;6.600;2022-09-13T03:09:23;4.50;;;3.33;;
51985;SDS011;38002;53.296;6.600;2022-09-13T03:26:01;3.03;;;1.90;;
51985;SDS011;38002;53.296;6.600;2022-09-13T03:31:10;4.43;;;1.52;;
51985;SDS011;38002;53.296;6.600;2022-09-13T03:36:23;1.90;;;0.90;;
51985;SDS011;38002;53.296;6.600;2022-09-13T03:46:43;0.88;;;0.80;;
51985;SDS011;38002;53.296;6.600;2022-09-13T03:51:47;4.53;;;1.40;;
51985;SDS011;38002;53.296;6.600;2022-09-13T04:02:10;3.30;;;1.27;;
51985;SDS011;38002;53.296;6.600;2022-09-13T04:07:14;2.30;;;1.70;;
51985;SDS011;38002;53.296;6.600;2022-09-13T04:12:17;1.90;;;1.80;;
51985;SDS011;38002;53.296;6.600;2022-09-13T04:17:18;3.47;;;2.30;;
51985;SDS011;38002;53.296;6.600;2022-09-13T04:22:18;3.37;;;1.40;;
51985;SDS011;38002;53.296;6.600;2022-09-13T04:27:19;3.60;;;1.23;;
51985;SDS011;38002;53.296;6.600;2022-09-13T04:32:19;3.80;;;1.10;;
51985;SDS011;38002;53.296;6.600;2022-09-13T04:37:20;2.13;;;1.00;;
51985;SDS011;38002;53.296;6.600;2022-09-13T04:42:20;1.70;;;0.90;;
51985;SDS011;38002;53.296;6.600;2022-09-13T04:47:20;1.60;;;1.23;;
51985;SDS011;38002;53.296;6.600;2022-09-13T04:52:24;3.60;;;1.10;;
51985;SDS011;38002;53.296;6.600;2022-09-13T04:57:24;1.33;;;1.13;;
51985;SDS011;38002;53.296;6.600;2022-09-13T05:02:25;3.20;;;1.17;;
51985;SDS011;38002;53.296;6.600;2022-09-13T05:07:25;4.13;;;1.50;;
51985;SDS011;38002;53.296;6.600;2022-09-13T05:12:25;2.83;;;1.33;;
51985;SDS011;38002;53.296;6.600;2022-09-13T05:17:28;5.57;;;1.40;;
51985;SDS011;38002;53.296;6.600;2022-09-13T05:22:29;6.70;;;0.95;;
51985;SDS011;38002;53.296;6.600;2022-09-13T05:27:29;7.43;;;1.10;;
51985;SDS011;38002;53.296;6.600;2022-09-13T05:32:30;6.37;;;1.20;;
51985;SDS011;38002;53.296;6.600;2022-09-13T05:37:31;4.80;;;1.00;;
51985;SDS011;38002;53.296;6.600;2022-09-13T05:42:31;5.10;;;1.10;;
51985;SDS011;38002;53.296;6.600;2022-09-13T05:47:32;5.23;;;1.27;;
51985;SDS011;38002;53.296;6.600;2022-09-13T05:52:32;2.87;;;1.00;;
51985;SDS011;38002;53.296;6.600;2022-09-13T05:57:33;4.73;;;1.30;;
51985;SDS011;38002;53.296;6.600;2022-09-13T06:02:33;7.03;;;1.50;;
51985;SDS011;38002;53.296;6.600;2022-09-13T06:07:34;7.80;;;2.50;;
51985;SDS011;38002;53.296;6.600;2022-09-13T06:12:34;3.70;;;1.40;;
51985;SDS011;38002;53.296;6.600;2022-09-13T06:17:35;5.50;;;1.60;;
51985;SDS011;38002;53.296;6.600;2022-09-13T06:22:35;9.40;;;1.43;;
51985;SDS011;38002;53.296;6.600;2022-09-13T06:27:36;3.77;;;1.27;;
51985;SDS011;38002;53.296;6.600;2022-09-13T06:32:36;8.93;;;1.50;;
51985;SDS011;38002;53.296;6.600;2022-09-13T06:37:36;5.37;;;1.50;;
51985;SDS011;38002;53.296;6.600;2022-09-13T06:42:37;8.50;;;1.73;;
51985;SDS011;38002;53.296;6.600;2022-09-13T06:47:37;8.93;;;1.40;;
51985;SDS011;38002;53.296;6.600;2022-09-13T06:52:38;3.80;;;0.77;;
51985;SDS011;38002;53.296;6.600;2022-09-13T06:57:38;1.90;;;0.90;;
51985;SDS011;38002;53.296;6.600;2022-09-13T07:02:39;2.40;;;0.70;;
51985;SDS011;38002;53.296;6.600;2022-09-13T07:07:39;4.60;;;1.00;;
51985;SDS011;38002;53.296;6.600;2022-09-13T07:12:40;5.20;;;0.70;;
51985;SDS011;38002;53.296;6.600;2022-09-13T07:17:41;6.05;;;1.35;;
51985;SDS011;38002;53.296;6.600;2022-09-13T07:22:41;2.83;;;1.07;;
51985;SDS011;38002;53.296;6.600;2022-09-13T07:27:42;3.53;;;0.70;;
51985;SDS011;38002;53.296;6.600;2022-09-13T07:32:42;5.47;;;0.97;;
51985;SDS011;38002;53.296;6.600;2022-09-13T07:37:42;7.87;;;0.80;;
51985;SDS011;38002;53.296;6.600;2022-09-13T07:42:45;3.95;;;0.68;;
51985;SDS011;38002;53.296;6.600;2022-09-13T07:47:46;8.53;;;0.83;;
51985;SDS011;38002;53.296;6.600;2022-09-13T07:52:46;7.73;;;1.43;;
51985;SDS011;38002;53.296;6.600;2022-09-13T07:57:46;12.93;;;1.30;;
51985;SDS011;38002;53.296;6.600;2022-09-13T08:02:47;6.33;;;0.93;;
51985;SDS011;38002;53.296;6.600;2022-09-13T08:07:50;3.87;;;1.40;;
51985;SDS011;38002;53.296;6.600;2022-09-13T08:12:50;2.75;;;0.73;;
51985;SDS011;38002;53.296;6.600;2022-09-13T08:17:51;3.90;;;0.83;;
51985;SDS011;38002;53.296;6.600;2022-09-13T08:22:53;4.78;;;0.70;;
51985;SDS011;38002;53.296;6.600;2022-09-13T08:27:54;6.77;;;0.70;;
51985;SDS011;38002;53.296;6.600;2022-09-13T08:32:54;1.83;;;0.43;;
51985;SDS011;38002;53.296;6.600;2022-09-13T08:37:54;6.57;;;0.90;;
51985;SDS011;38002;53.296;6.600;2022-09-13T08:48:03;5.40;;;0.70;;
51985;SDS011;38002;53.296;6.600;2022-09-13T08:58:23;6.67;;;1.00;;
51985;SDS011;38002;53.296;6.600;2022-09-13T09:03:31;4.05;;;0.90;;
51985;SDS011;38002;53.296;6.600;2022-09-13T09:19:04;6.72;;;1.15;;
51985;SDS011;38002;53.296;6.600;2022-09-13T09:24:22;3.40;;;0.75;;
51985;SDS011;38002;53.296;6.600;2022-09-13T09:29:25;3.47;;;0.60;;
51985;SDS011;38002;53.296;6.600;2022-09-13T09:39:43;2.78;;;0.68;;
51985;SDS011;38002;53.296;6.600;2022-09-13T09:44:45;5.37;;;0.60;;
51985;SDS011;38002;53.296;6.600;2022-09-13T09:49:50;2.97;;;0.90;;
51985;SDS011;38002;53.296;6.600;2022-09-13T09:55:17;5.55;;;0.90;;
51985;SDS011;38002;53.296;6.600;2022-09-13T10:00:22;3.00;;;0.68;;
51985;SDS011;38002;53.296;6.600;2022-09-13T10:05:24;5.90;;;0.60;;
51985;SDS011;38002;53.296;6.600;2022-09-13T10:15:55;5.30;;;0.75;;
51985;SDS011;38002;53.296;6.600;2022-09-13T10:21:06;5.60;;;0.60;;
51985;SDS011;38002;53.296;6.600;2022-09-13T10:26:20;1.23;;;0.60;;
51985;SDS011;38002;53.296;6.600;2022-09-13T10:31:27;1.52;;;0.50;;
51985;SDS011;38002;53.296;6.600;2022-09-13T10:36:30;4.50;;;0.68;;
51985;SDS011;38002;53.296;6.600;2022-09-13T10:41:35;1.40;;;0.45;;
51985;SDS011;38002;53.296;6.600;2022-09-13T10:46:38;2.75;;;0.40;;
51985;SDS011;38002;53.296;6.600;2022-09-13T10:51:39;5.50;;;1.08;;
51985;SDS011;38002;53.296;6.600;2022-09-13T10:56:40;3.15;;;0.57;;
51985;SDS011;38002;53.296;6.600;2022-09-13T11:01:43;2.50;;;0.55;;
51985;SDS011;38002;53.296;6.600;2022-09-13T11:07:03;5.53;;;1.90;;
51985;SDS011;38002;53.296;6.600;2022-09-13T11:17:57;4.88;;;1.10;;
51985;SDS011;38002;53.296;6.600;2022-09-13T11:33:44;6.72;;;0.75;;
51985;SDS011;38002;53.296;6.600;2022-09-13T11:55:40;3.47;;;0.90;;
51985;SDS011;38002;53.296;6.600;2022-09-13T12:00:54;5.90;;;1.00;;
51985;SDS011;38002;53.296;6.600;2022-09-13T12:16:14;5.47;;;0.88;;
51985;SDS011;38002;53.296;6.600;2022-09-13T12:21:22;4.80;;;0.80;;
51985;SDS011;38002;53.296;6.600;2022-09-13T12:26:29;8.70;;;1.30;;
51985;SDS011;38002;53.296;6.600;2022-09-13T12:31:35;3.63;;;0.68;;
51985;SDS011;38002;53.296;6.600;2022-09-13T12:52:22;4.40;;;0.85;;
51985;SDS011;38002;53.296;6.600;2022-09-13T13:08:03;9.13;;;0.93;;
51985;SDS011;38002;53.296;6.600;2022-09-13T13:13:33;3.78;;;0.90;;
51985;SDS011;38002;53.296;6.600;2022-09-13T13:19:01;4.97;;;0.90;;
51985;SDS011;38002;53.296;6.600;2022-09-13T13:29:17;6.43;;;0.98;;
51985;SDS011;38002;53.296;6.600;2022-09-13T13:54:56;6.50;;;0.80;;
51985;SDS011;38002;53.296;6.600;2022-09-13T14:00:05;5.10;;;0.52;;
51985;SDS011;38002;53.296;6.600;2022-09-13T14:10:58;3.20;;;0.80;;
51985;SDS011;38002;53.296;6.600;2022-09-13T14:32:26;4.13;;;0.73;;
51985;SDS011;38002;53.296;6.600;2022-09-13T14:37:30;0.98;;;0.50;;
51985;SDS011;38002;53.296;6.600;2022-09-13T14:42:42;2.65;;;0.60;;
51985;SDS011;38002;53.296;6.600;2022-09-13T14:48:01;5.28;;;0.88;;
51985;SDS011;38002;53.296;6.600;2022-09-13T14:53:12;3.75;;;0.68;;
51985;SDS011;38002;53.296;6.600;2022-09-13T14:58:27;5.03;;;0.68;;
51985;SDS011;38002;53.296;6.600;2022-09-13T15:03:39;4.50;;;0.65;;
51985;SDS011;38002;53.296;6.600;2022-09-13T15:08:44;2.60;;;0.50;;
51985;SDS011;38002;53.296;6.600;2022-09-13T15:13:46;4.32;;;0.63;;
51985;SDS011;38002;53.296;6.600;2022-09-13T15:18:46;8.33;;;0.63;;
51985;SDS011;38002;53.296;6.600;2022-09-13T15:23:49;1.85;;;0.52;;
51985;SDS011;38002;53.296;6.600;2022-09-13T15:28:51;1.23;;;0.30;;
51985;SDS011;38002;53.296;6.600;2022-09-13T15:39:22;3.17;;;0.68;;
51985;SDS011;38002;53.296;6.600;2022-09-13T15:44:25;3.10;;;0.70;;
51985;SDS011;38002;53.296;6.600;2022-09-13T15:49:27;3.35;;;0.70;;
51985;SDS011;38002;53.296;6.600;2022-09-13T15:54:32;4.53;;;0.88;;
51985;SDS011;38002;53.296;6.600;2022-09-13T15:59:35;1.42;;;0.40;;
51985;SDS011;38002;53.296;6.600;2022-09-13T16:04:36;4.50;;;0.80;;
51985;SDS011;38002;53.296;6.600;2022-09-13T16:09:36;5.93;;;0.80;;
51985;SDS011;38002;53.296;6.600;2022-09-13T16:19:38;2.70;;;1.30;;
51985;SDS011;38002;53.296;6.600;2022-09-13T16:24:41;2.57;;;0.60;;
51985;SDS011;38002;53.296;6.600;2022-09-13T16:29:42;4.85;;;1.00;;
51985;SDS011;38002;53.296;6.600;2022-09-13T16:34:43;2.85;;;0.80;;
51985;SDS011;38002;53.296;6.600;2022-09-13T16:39:45;0.98;;;0.35;;
51985;SDS011;38002;53.296;6.600;2022-09-13T16:44:45;2.00;;;0.60;;
51985;SDS011;38002;53.296;6.600;2022-09-13T16:49:46;5.70;;;0.97;;
51985;SDS011;38002;53.296;6.600;2022-09-13T16:54:46;5.87;;;0.60;;
51985;SDS011;38002;53.296;6.600;2022-09-13T16:59:48;3.50;;;0.30;;
51985;SDS011;38002;53.296;6.600;2022-09-13T17:04:51;3.95;;;0.45;;
51985;SDS011;38002;53.296;6.600;2022-09-13T17:09:55;2.63;;;0.73;;
51985;SDS011;38002;53.296;6.600;2022-09-13T17:14:55;4.43;;;0.67;;
51985;SDS011;38002;53.296;6.600;2022-09-13T17:19:56;1.97;;;0.40;;
51985;SDS011;38002;53.296;6.600;2022-09-13T17:24:58;4.95;;;0.77;;
51985;SDS011;38002;53.296;6.600;2022-09-13T17:29:58;3.03;;;0.53;;
51985;SDS011;38002;53.296;6.600;2022-09-13T17:35:01;1.73;;;0.50;;
51985;SDS011;38002;53.296;6.600;2022-09-13T17:40:02;1.73;;;0.50;;
51985;SDS011;38002;53.296;6.600;2022-09-13T17:45:02;0.83;;;0.30;;
51985;SDS011;38002;53.296;6.600;2022-09-13T17:50:03;2.77;;;0.50;;
51985;SDS011;38002;53.296;6.600;2022-09-13T17:55:04;1.73;;;0.43;;
51985;SDS011;38002;53.296;6.600;2022-09-13T18:00:06;0.75;;;0.50;;
51985;SDS011;38002;53.296;6.600;2022-09-13T18:05:13;2.85;;;0.40;;
51985;SDS011;38002;53.296;6.600;2022-09-13T18:10:13;1.80;;;0.47;;
51985;SDS011;38002;53.296;6.600;2022-09-13T18:15:14;8.13;;;0.90;;
51985;SDS011;38002;53.296;6.600;2022-09-13T18:20:14;3.90;;;0.73;;
51985;SDS011;38002;53.296;6.600;2022-09-13T18:25:15;1.30;;;0.70;;
51985;SDS011;38002;53.296;6.600;2022-09-13T18:30:16;2.80;;;0.80;;
51985;SDS011;38002;53.296;6.600;2022-09-13T18:35:16;3.67;;;0.80;;
51985;SDS011;38002;53.296;6.600;2022-09-13T18:40:17;2.10;;;0.50;;
51985;SDS011;38002;53.296;6.600;2022-09-13T18:45:18;3.13;;;0.63;;
51985;SDS011;38002;53.296;6.600;2022-09-13T18:50:18;0.77;;;0.40;;
51985;SDS011;38002;53.296;6.600;2022-09-13T18:55:19;0.67;;;0.20;;
51985;SDS011;38002;53.296;6.600;2022-09-13T19:00:19;3.10;;;0.50;;
51985;SDS011;38002;53.296;6.600;2022-09-13T19:05:26;17.90;;;1.60;;
51985;SDS011;38002;53.296;6.600;2022-09-13T19:10:28;3.08;;;0.57;;
51985;SDS011;38002;53.296;6.600;2022-09-13T19:15:31;2.13;;;0.60;;
51985;SDS011;38002;53.296;6.600;2022-09-13T19:20:32;3.42;;;1.13;;
51985;SDS011;38002;53.296;6.600;2022-09-13T19:25:33;3.87;;;0.67;;
51985;SDS011;38002;53.296;6.600;2022-09-13T19:30:34;2.50;;;0.73;;
51985;SDS011;38002;53.296;6.600;2022-09-13T19:35:34;0.73;;;0.50;;
51985;SDS011;38002;53.296;6.600;2022-09-13T19:40:35;2.03;;;0.50;;
51985;SDS011;38002;53.296;6.600;2022-09-13T19:45:37;1.80;;;0.60;;
51985;SDS011;38002;53.296;6.600;2022-09-13T19:50:38;4.00;;;0.50;;
51985;SDS011;38002;53.296;6.600;2022-09-13T19:55:45;2.13;;;1.50;;
51985;SDS011;38002;53.296;6.600;2022-09-13T20:00:46;5.05;;;0.57;;
51985;SDS011;38002;53.296;6.600;2022-09-13T20:05:46;2.30;;;0.70;;
51985;SDS011;38002;53.296;6.600;2022-09-13T20:10:46;1.40;;;0.57;;
51985;SDS011;38002;53.296;6.600;2022-09-13T20:15:47;2.90;;;0.93;;
51985;SDS011;38002;53.296;6.600;2022-09-13T20:20:47;1.60;;;0.60;;
51985;SDS011;38002;53.296;6.600;2022-09-13T20:25:49;0.73;;;0.73;;
51985;SDS011;38002;53.296;6.600;2022-09-13T20:30:53;4.00;;;0.73;;
51985;SDS011;38002;53.296;6.600;2022-09-13T20:35:55;4.28;;;1.15;;
51985;SDS011;38002;53.296;6.600;2022-09-13T20:41:06;2.83;;;1.00;;
51985;SDS011;38002;53.296;6.600;2022-09-13T20:46:10;5.47;;;1.30;;
51985;SDS011;38002;53.296;6.600;2022-09-13T20:51:13;2.83;;;0.93;;
51985;SDS011;38002;53.296;6.600;2022-09-13T20:56:19;2.05;;;0.82;;
51985;SDS011;38002;53.296;6.600;2022-09-13T21:01:20;3.33;;;0.90;;
51985;SDS011;38002;53.296;6.600;2022-09-13T21:06:23;1.70;;;0.85;;
51985;SDS011;38002;53.296;6.600;2022-09-13T21:11:31;1.67;;;0.65;;
51985;SDS011;38002;53.296;6.600;2022-09-13T21:16:37;2.35;;;0.60;;
51985;SDS011;38002;53.296;6.600;2022-09-13T21:21:40;3.63;;;1.00;;
51985;SDS011;38002;53.296;6.600;2022-09-13T21:26:41;6.38;;;0.90;;
51985;SDS011;38002;53.296;6.600;2022-09-13T21:31:41;3.30;;;0.77;;
51985;SDS011;38002;53.296;6.600;2022-09-13T21:36:42;3.97;;;1.30;;
51985;SDS011;38002;53.296;6.600;2022-09-13T21:41:44;3.17;;;0.93;;
51985;SDS011;38002;53.296;6.600;2022-09-13T21:46:46;5.05;;;0.65;;
51985;SDS011;38002;53.296;6.600;2022-09-13T21:51:47;3.07;;;0.60;;
51985;SDS011;38002;53.296;6.600;2022-09-13T21:56:49;4.50;;;0.70;;
51985;SDS011;38002;53.296;6.600;2022-09-13T22:01:52;1.45;;;1.23;;
51985;SDS011;38002;53.296;6.600;2022-09-13T22:06:53;1.77;;;0.53;;
51985;SDS011;38002;53.296;6.600;2022-09-13T22:11:54;5.60;;;0.75;;
51985;SDS011;38002;53.296;6.600;2022-09-13T22:16:55;2.45;;;1.42;;
51985;SDS011;38002;53.296;6.600;2022-09-13T22:21:57;3.67;;;1.10;;
51985;SDS011;38002;53.296;6.600;2022-09-13T22:26:58;4.93;;;1.40;;
51985;SDS011;38002;53.296;6.600;2022-09-13T22:31:59;5.18;;;1.50;;
51985;SDS011;38002;53.296;6.600;2022-09-13T22:36:59;2.60;;;1.42;;
51985;SDS011;38002;53.296;6.600;2022-09-13T22:42:00;1.50;;;1.40;;
51985;SDS011;38002;53.296;6.600;2022-09-13T22:47:00;1.67;;;1.57;;
51985;SDS011;38002;53.296;6.600;2022-09-13T22:52:01;4.38;;;1.48;;
51985;SDS011;38002;53.296;6.600;2022-09-13T22:57:02;3.30;;;1.73;;
51985;SDS011;38002;53.296;6.600;2022-09-13T23:02:02;6.95;;;1.55;;
51985;SDS011;38002;53.296;6.600;2022-09-13T23:07:02;3.25;;;1.65;;
51985;SDS011;38002;53.296;6.600;2022-09-13T23:12:03;2.33;;;2.10;;
51985;SDS011;38002;53.296;6.600;2022-09-13T23:17:04;7.40;;;1.92;;
51985;SDS011;38002;53.296;6.600;2022-09-13T23:22:04;10.65;;;2.22;;
51985;SDS011;38002;53.296;6.600;2022-09-13T23:27:05;3.60;;;1.60;;
51985;SDS011;38002;53.296;6.600;2022-09-13T23:32:06;2.15;;;1.70;;
51985;SDS011;38002;53.296;6.600;2022-09-13T23:37:07;5.13;;;2.42;;
51985;SDS011;38002;53.296;6.600;2022-09-13T23:42:08;4.20;;;2.57;;
51985;SDS011;38002;53.296;6.600;2022-09-13T23:47:08;4.35;;;2.00;;
51985;SDS011;38002;53.296;6.600;2022-09-13T23:52:09;2.05;;;1.83;;
51985;SDS011;38002;53.296;6.600;2022-09-13T23:57:09;4.65;;;2.20;;
